createdAt,value
2019-05-12T00:00:48.377Z,8.20
2019-05-12T00:03:20.559Z,8.10
2019-05-12T00:05:52.563Z,8.10
2019-05-12T00:08:23.724Z,8.00
2019-05-12T00:10:54.612Z,8.00
2019-05-12T00:13:27.959Z,8.00
2019-05-12T00:15:58.952Z,8.00
2019-05-12T00:18:29.980Z,8.00
2019-05-12T00:21:01.019Z,8.00
2019-05-12T00:23:32.273Z,8.00
2019-05-12T00:26:03.367Z,8.10
2019-05-12T00:28:34.316Z,8.00
2019-05-12T00:31:05.261Z,7.90
2019-05-12T00:33:38.481Z,7.90
2019-05-12T00:36:08.940Z,7.80
2019-05-12T00:38:40.015Z,7.80
2019-05-12T00:41:11.974Z,7.90
2019-05-12T00:43:44.004Z,7.90
2019-05-12T00:46:14.971Z,7.90
2019-05-12T00:48:47.792Z,7.90
2019-05-12T00:51:18.630Z,7.90
2019-05-12T00:53:49.652Z,7.90
2019-05-12T00:56:20.584Z,7.90
2019-05-12T00:58:51.629Z,7.90
2019-05-12T01:01:22.697Z,7.90
2019-05-12T01:03:53.739Z,8.00
2019-05-12T01:06:24.635Z,8.10
2019-05-12T01:08:57.774Z,8.10
2019-05-12T01:11:28.729Z,8.00
2019-05-12T01:14:00.611Z,7.90
2019-05-12T01:16:31.472Z,7.90
2019-05-12T01:19:03.419Z,7.90
2019-05-12T01:21:34.285Z,7.90
2019-05-12T01:24:05.304Z,7.90
2019-05-12T01:26:38.785Z,7.90
2019-05-12T01:29:11.135Z,7.90
2019-05-12T01:31:49.056Z,7.90
2019-05-12T01:34:20.197Z,7.90
2019-05-12T01:36:52.736Z,7.90
2019-05-12T01:39:24.035Z,7.90
2019-05-12T01:41:54.885Z,7.90
2019-05-12T01:44:25.836Z,7.80
2019-05-12T01:46:57.786Z,7.80
2019-05-12T01:49:29.019Z,7.80
2019-05-12T01:52:01.113Z,7.80
2019-05-12T01:54:32.134Z,7.90
2019-05-12T01:57:03.116Z,7.80
2019-05-12T01:59:34.054Z,7.70
2019-05-12T02:02:05.023Z,7.60
2019-05-12T02:05:01.203Z,7.50
2019-05-12T02:07:33.874Z,7.50
2019-05-12T02:10:05.624Z,7.50
2019-05-12T02:12:38.368Z,7.50
2019-05-12T02:15:10.336Z,7.60
2019-05-12T02:17:41.317Z,7.60
2019-05-12T02:20:13.653Z,7.60
2019-05-12T02:22:44.629Z,7.70
2019-05-12T02:25:18.290Z,7.60
2019-05-12T02:27:48.504Z,7.50
2019-05-12T02:30:20.487Z,7.50
2019-05-12T02:32:55.045Z,7.50
2019-05-12T02:35:24.823Z,7.50
2019-05-12T02:37:55.839Z,7.60
2019-05-12T02:40:26.970Z,7.60
2019-05-12T02:43:01.004Z,7.70
2019-05-12T02:45:35.140Z,7.70
2019-05-12T02:48:05.229Z,7.70
2019-05-12T02:50:38.226Z,7.60
2019-05-12T02:53:09.535Z,7.70
2019-05-12T02:55:44.792Z,7.60
2019-05-12T02:58:18.144Z,7.70
2019-05-12T03:00:49.688Z,7.60
2019-05-12T03:03:25.133Z,7.70
2019-05-12T03:05:58.064Z,7.80
2019-05-12T03:08:34.577Z,7.80
2019-05-12T03:11:05.941Z,7.80
2019-05-12T03:13:37.281Z,7.80
2019-05-12T03:16:08.342Z,7.80
2019-05-12T03:18:39.371Z,7.90
2019-05-12T03:21:10.555Z,7.90
2019-05-12T03:23:44.433Z,7.90
2019-05-12T03:26:15.299Z,7.90
2019-05-12T03:28:46.452Z,8.00
2019-05-12T03:31:25.309Z,8.00
2019-05-12T03:33:59.504Z,8.00
2019-05-12T03:36:32.255Z,8.00
2019-05-12T03:38:58.902Z,8.00
2019-05-12T03:41:29.900Z,8.00
2019-05-12T03:44:00.816Z,8.00
2019-05-12T03:46:35.022Z,8.00
2019-05-12T03:49:05.438Z,8.00
2019-05-12T03:51:36.649Z,8.00
2019-05-12T03:54:07.665Z,8.10
2019-05-12T03:56:39.321Z,8.10
2019-05-12T03:59:10.437Z,8.20
2019-05-12T04:01:44.826Z,8.30
2019-05-12T04:04:15.280Z,8.30
2019-05-12T04:06:46.478Z,8.40
2019-05-12T04:09:17.658Z,8.40
2019-05-12T04:11:48.712Z,8.50
2019-05-12T04:14:19.720Z,8.60
2019-05-12T04:16:50.896Z,8.70
2019-05-12T04:19:24.728Z,8.80
2019-05-12T04:21:55.796Z,8.80
2019-05-12T04:24:26.709Z,8.90
2019-05-12T04:26:57.764Z,9.00
2019-05-12T04:29:28.764Z,9.00
2019-05-12T04:31:59.894Z,9.10
2019-05-12T04:34:34.124Z,9.10
2019-05-12T04:37:04.540Z,9.20
2019-05-12T04:39:35.847Z,9.20
2019-05-12T04:42:07.001Z,9.30
2019-05-12T04:44:51.215Z,9.30
2019-05-12T04:47:35.127Z,9.40
2019-05-12T04:50:06.756Z,9.50
2019-05-12T04:52:37.797Z,9.60
2019-05-12T04:55:09.001Z,9.70
2019-05-12T04:57:39.921Z,9.80
2019-05-12T05:00:11.159Z,9.80
2019-05-12T05:02:45.262Z,9.80
2019-05-12T05:05:15.136Z,9.80
2019-05-12T05:07:46.164Z,9.90
2019-05-12T05:10:17.361Z,9.90
2019-05-12T05:12:48.351Z,9.90
2019-05-12T05:15:19.721Z,9.90
2019-05-12T05:17:50.850Z,9.90
2019-05-12T05:20:23.807Z,9.90
2019-05-12T05:22:54.595Z,9.90
2019-05-12T05:25:23.746Z,10.00
2019-05-12T05:27:54.948Z,10.10
2019-05-12T05:30:26.148Z,10.10
2019-05-12T05:32:57.159Z,10.20
2019-05-12T05:35:28.989Z,10.30
2019-05-12T05:38:00.878Z,10.40
2019-05-12T05:40:32.019Z,10.50
2019-05-12T05:43:12.221Z,10.60
2019-05-12T05:45:36.810Z,10.70
2019-05-12T05:48:10.134Z,10.80
2019-05-12T05:50:40.798Z,10.90
2019-05-12T05:53:17.416Z,11.00
2019-05-12T05:55:50.388Z,11.10
2019-05-12T05:58:19.738Z,11.20
2019-05-12T06:00:54.686Z,11.30
2019-05-12T06:03:27.794Z,11.50
2019-05-12T06:06:01.437Z,11.60
2019-05-12T06:08:30.439Z,11.60
2019-05-12T06:11:01.478Z,11.70
2019-05-12T06:13:34.572Z,11.80
2019-05-12T06:16:05.500Z,11.90
2019-05-12T06:18:36.678Z,11.90
2019-05-12T06:21:07.735Z,11.80
2019-05-12T06:23:39.285Z,11.80
2019-05-12T06:26:10.385Z,11.90
2019-05-12T06:28:43.777Z,12.00
2019-05-12T06:31:18.802Z,12.20
2019-05-12T06:33:46.999Z,12.40
2019-05-12T06:36:21.931Z,12.60
2019-05-12T06:38:51.016Z,12.60
2019-05-12T06:41:25.398Z,12.60
2019-05-12T06:43:54.945Z,12.70
2019-05-12T06:46:26.079Z,12.60
2019-05-12T06:49:00.879Z,12.70
2019-05-12T06:51:30.205Z,12.80
2019-05-12T06:54:07.299Z,12.90
2019-05-12T06:56:34.333Z,13.00
2019-05-12T06:59:09.738Z,13.20
2019-05-12T07:01:38.579Z,13.20
2019-05-12T07:04:10.281Z,13.20
2019-05-12T07:06:43.942Z,13.20
2019-05-12T07:09:16.229Z,13.10
2019-05-12T07:11:53.354Z,13.10
2019-05-12T07:14:22.785Z,13.00
2019-05-12T07:17:01.579Z,13.10
2019-05-12T07:19:29.807Z,13.10
2019-05-12T07:22:03.409Z,13.20
2019-05-12T07:24:34.635Z,13.30
2019-05-12T07:27:09.122Z,13.60
2019-05-12T07:29:38.263Z,13.70
2019-05-12T07:32:16.522Z,13.80
2019-05-12T07:34:43.749Z,13.80
2019-05-12T07:37:15.878Z,13.90
2019-05-12T07:39:49.353Z,14.00
2019-05-12T07:42:22.712Z,14.00
2019-05-12T07:44:58.003Z,14.10
2019-05-12T07:47:29.414Z,14.20
2019-05-12T07:50:00.353Z,14.30
2019-05-12T07:52:33.614Z,14.20
2019-05-12T07:55:04.416Z,14.20
2019-05-12T07:57:50.700Z,14.10
2019-05-12T08:00:11.392Z,14.10
2019-05-12T08:02:43.901Z,14.00
2019-05-12T08:05:19.667Z,14.00
2019-05-12T08:07:50.346Z,13.90
2019-05-12T08:10:23.315Z,13.90
2019-05-12T08:12:59.391Z,13.90
2019-05-12T08:15:26.805Z,14.00
2019-05-12T08:17:59.689Z,14.00
2019-05-12T08:20:31.017Z,14.00
2019-05-12T08:23:10.440Z,14.00
2019-05-12T08:26:11.429Z,14.00
2019-05-12T08:28:40.001Z,14.10
2019-05-12T08:31:07.519Z,14.20
2019-05-12T08:33:43.449Z,14.30
2019-05-12T08:36:16.292Z,14.30
2019-05-12T08:38:46.484Z,14.40
2019-05-12T08:41:17.462Z,14.40
2019-05-12T08:44:17.322Z,14.50
2019-05-12T08:47:17.669Z,14.50
2019-05-12T08:50:23.216Z,14.50
2019-05-12T08:53:28.598Z,14.40
2019-05-12T08:56:23.319Z,14.30
2019-05-12T08:58:54.419Z,14.20
2019-05-12T09:01:30.467Z,14.10
2019-05-12T09:04:00.249Z,14.00
2019-05-12T09:06:31.357Z,14.00
2019-05-12T09:09:04.594Z,14.00
2019-05-12T09:11:35.830Z,13.90
2019-05-12T09:14:07.044Z,13.80
2019-05-12T09:16:38.474Z,13.80
2019-05-12T09:19:18.196Z,13.80
2019-05-12T09:21:44.254Z,13.90
2019-05-12T09:24:21.722Z,14.00
2019-05-12T09:26:48.178Z,14.10
2019-05-12T09:29:19.459Z,14.20
2019-05-12T09:31:50.724Z,14.30
2019-05-12T09:34:23.493Z,14.30
2019-05-12T09:36:59.569Z,14.40
2019-05-12T09:39:27.313Z,14.50
2019-05-12T09:41:58.554Z,14.60
2019-05-12T09:44:30.606Z,14.60
2019-05-12T09:47:03.937Z,14.70
2019-05-12T09:49:39.405Z,14.70
2019-05-12T09:52:13.947Z,14.80
2019-05-12T09:54:41.635Z,14.80
2019-05-12T09:57:13.702Z,14.80
2019-05-12T09:59:54.116Z,14.80
2019-05-12T10:02:20.576Z,14.80
2019-05-12T10:04:56.383Z,14.70
2019-05-12T10:07:24.243Z,14.50
2019-05-12T10:09:58.973Z,14.40
2019-05-12T10:12:29.837Z,14.30
2019-05-12T10:15:01.453Z,14.40
2019-05-12T10:17:33.977Z,14.40
2019-05-12T10:20:06.095Z,14.40
2019-05-12T10:22:40.194Z,14.30
2019-05-12T10:25:18.075Z,14.20
2019-05-12T10:30:57.082Z,14.10
2019-05-12T10:33:28.324Z,14.10
2019-05-12T10:36:04.177Z,14.20
2019-05-12T10:38:34.397Z,14.30
2019-05-12T10:41:06.561Z,14.40
2019-05-12T10:43:39.108Z,14.40
2019-05-12T10:46:10.162Z,14.40
2019-05-12T10:48:44.146Z,14.50
2019-05-12T10:51:14.694Z,14.40
2019-05-12T10:53:48.690Z,14.30
2019-05-12T10:56:19.723Z,14.20
2019-05-12T10:58:50.822Z,14.20
2019-05-12T11:01:24.075Z,14.20
2019-05-12T11:03:54.701Z,14.30
2019-05-12T11:06:25.827Z,14.30
2019-05-12T11:08:56.985Z,14.30
2019-05-12T11:11:32.893Z,14.20
2019-05-12T11:14:00.574Z,14.20
2019-05-12T11:16:32.972Z,14.30
2019-05-12T11:19:06.370Z,14.30
2019-05-12T11:21:36.658Z,14.30
2019-05-12T11:24:08.407Z,14.30
2019-05-12T11:26:39.434Z,14.30
2019-05-12T11:29:10.498Z,14.40
2019-05-12T11:31:43.949Z,14.40
2019-05-12T11:34:14.045Z,14.30
2019-05-12T11:36:44.926Z,14.30
2019-05-12T11:39:15.928Z,14.30
2019-05-12T11:41:46.871Z,14.30
2019-05-12T11:44:17.847Z,14.30
2019-05-12T11:46:49.040Z,14.40
2019-05-12T11:49:21.661Z,14.30
2019-05-12T11:51:54.252Z,14.30
2019-05-12T11:54:27.998Z,14.20
2019-05-12T11:56:58.849Z,14.30
2019-05-12T11:59:30.356Z,14.40
2019-05-12T12:02:02.035Z,14.50
2019-05-12T12:04:49.113Z,14.50
2019-05-12T12:07:20.312Z,14.40
2019-05-12T12:09:56.126Z,14.20
2019-05-12T12:12:26.126Z,14.20
2019-05-12T12:15:30.252Z,14.00
2019-05-12T12:18:06.055Z,14.00
2019-05-12T12:20:34.016Z,13.80
2019-05-12T12:23:09.008Z,13.80
2019-05-12T12:25:38.085Z,13.80
2019-05-12T12:28:13.486Z,13.90
2019-05-12T12:30:47.415Z,13.90
2019-05-12T12:33:17.677Z,14.00
2019-05-12T12:35:50.588Z,14.10
2019-05-12T12:38:21.933Z,14.10
2019-05-12T12:40:53.673Z,14.10
2019-05-12T12:43:25.016Z,14.10
2019-05-12T12:46:10.810Z,14.20
2019-05-12T12:48:39.737Z,14.20
2019-05-12T12:51:10.840Z,14.20
2019-05-12T12:53:43.780Z,14.30
2019-05-12T12:56:16.124Z,14.30
2019-05-12T12:58:48.055Z,14.20
2019-05-12T13:01:28.618Z,14.30
2019-05-12T13:04:04.129Z,14.30
2019-05-12T13:06:31.339Z,14.50
2019-05-12T13:09:07.654Z,14.40
2019-05-12T13:11:36.284Z,14.40
2019-05-12T13:14:08.122Z,14.30
2019-05-12T13:16:39.531Z,14.30
2019-05-12T13:19:17.100Z,14.20
2019-05-12T13:21:48.489Z,14.20
2019-05-12T13:24:20.329Z,14.20
2019-05-12T13:26:53.918Z,14.10
2019-05-12T13:29:28.289Z,14.00
2019-05-12T13:31:57.895Z,14.00
2019-05-12T13:34:36.614Z,14.00
2019-05-12T13:37:03.435Z,14.00
2019-05-12T13:39:36.359Z,14.10
2019-05-12T13:42:10.215Z,14.10
2019-05-12T13:44:40.960Z,14.20
2019-05-12T13:47:13.975Z,14.20
2019-05-12T13:49:47.494Z,14.20
2019-05-12T13:52:20.313Z,14.20
2019-05-12T13:54:55.243Z,14.10
2019-05-12T14:00:25.874Z,14.10
2019-05-12T14:03:03.287Z,14.20
2019-05-12T14:05:29.210Z,14.20
2019-05-12T14:08:00.073Z,14.20
2019-05-12T14:10:33.222Z,14.20
2019-05-12T14:13:03.633Z,14.20
2019-05-12T14:15:34.616Z,14.20
2019-05-12T14:18:10.306Z,14.20
2019-05-12T14:20:38.166Z,14.20
2019-05-12T14:23:11.305Z,14.10
2019-05-12T14:25:43.773Z,14.10
2019-05-12T14:28:16.657Z,14.00
2019-05-12T14:30:51.489Z,14.00
2019-05-12T14:33:19.965Z,13.90
2019-05-12T14:35:50.729Z,13.90
2019-05-12T14:38:27.341Z,13.90
2019-05-12T14:40:54.260Z,13.80
2019-05-12T14:43:25.132Z,13.80
2019-05-12T14:46:00.288Z,13.70
2019-05-12T14:48:28.444Z,13.60
2019-05-12T14:50:59.243Z,13.50
2019-05-12T14:53:32.870Z,13.30
2019-05-12T14:56:03.887Z,13.30
2019-05-12T14:58:34.990Z,13.30
2019-05-12T15:01:06.210Z,13.30
2019-05-12T15:03:42.374Z,13.30
2019-05-12T15:06:19.520Z,13.30
2019-05-12T15:08:47.109Z,13.30
2019-05-12T15:11:18.036Z,13.30
2019-05-12T15:13:49.027Z,13.20
2019-05-12T15:16:19.827Z,13.20
2019-05-12T15:18:53.973Z,13.10
2019-05-12T15:21:27.417Z,13.10
2019-05-12T15:23:58.218Z,13.00
2019-05-12T15:26:30.096Z,13.00
2019-05-12T15:29:05.356Z,13.00
2019-05-12T15:31:34.518Z,13.00
2019-05-12T15:34:06.259Z,13.00
2019-05-12T15:36:43.640Z,12.90
2019-05-12T15:39:13.948Z,12.80
2019-05-12T15:41:45.929Z,12.80
2019-05-12T15:44:16.914Z,12.80
2019-05-12T15:46:48.957Z,12.70
2019-05-12T15:49:21.362Z,12.70
2019-05-12T15:51:57.468Z,12.60
2019-05-12T15:54:45.712Z,12.50
2019-05-12T15:57:13.641Z,12.50
2019-05-12T15:59:46.035Z,12.40
2019-05-12T16:02:17.908Z,12.40
2019-05-12T16:04:50.506Z,12.40
2019-05-12T16:07:35.682Z,12.30
2019-05-12T16:10:04.423Z,12.30
2019-05-12T16:12:37.466Z,12.30
2019-05-12T16:15:11.406Z,12.30
2019-05-12T16:17:44.472Z,12.30
2019-05-12T16:20:16.390Z,12.30
2019-05-12T16:22:48.307Z,12.20
2019-05-12T16:25:20.897Z,12.20
2019-05-12T16:27:53.613Z,12.20
2019-05-12T16:30:26.028Z,12.20
2019-05-12T16:32:58.629Z,12.20
2019-05-12T16:35:31.724Z,12.20
2019-05-12T16:38:05.883Z,12.20
2019-05-12T16:40:39.438Z,12.20
2019-05-12T16:43:23.844Z,12.20
2019-05-12T16:45:55.662Z,12.20
2019-05-12T16:48:42.225Z,12.10
2019-05-12T16:51:14.036Z,12.10
2019-05-12T16:53:45.854Z,12.10
2019-05-12T16:56:20.035Z,12.00
2019-05-12T16:58:51.001Z,11.90
2019-05-12T17:01:25.975Z,11.80
2019-05-12T17:03:55.620Z,11.80
2019-05-12T17:06:28.873Z,11.80
2019-05-12T17:09:03.487Z,11.80
2019-05-12T17:11:37.431Z,11.80
2019-05-12T17:14:08.340Z,11.70
2019-05-12T17:16:42.389Z,11.70
2019-05-12T17:19:15.248Z,11.60
2019-05-12T17:21:49.461Z,11.60
2019-05-12T17:24:19.298Z,11.60
2019-05-12T17:26:52.190Z,11.60
2019-05-12T17:29:25.046Z,11.60
2019-05-12T17:31:56.921Z,11.60
2019-05-12T17:34:27.868Z,11.50
2019-05-12T17:37:00.557Z,11.50
2019-05-12T17:39:35.768Z,11.40
2019-05-12T17:42:05.319Z,11.40
2019-05-12T17:44:38.891Z,11.40
2019-05-12T17:47:12.903Z,11.40
2019-05-12T17:49:43.607Z,11.30
2019-05-12T17:52:18.185Z,11.30
2019-05-12T17:54:47.083Z,11.30
2019-05-12T17:57:19.860Z,11.30
2019-05-12T17:59:50.462Z,11.30
2019-05-12T18:02:23.476Z,11.30
2019-05-12T18:04:53.993Z,11.30
2019-05-12T18:07:24.830Z,11.20
2019-05-12T18:09:56.735Z,11.30
2019-05-12T18:12:38.241Z,11.20
2019-05-12T18:15:00.653Z,11.20
2019-05-12T18:17:33.761Z,11.20
2019-05-12T18:20:04.292Z,11.20
2019-05-12T18:22:39.264Z,11.20
2019-05-12T18:25:09.081Z,11.20
2019-05-12T18:27:44.324Z,11.30
2019-05-12T18:30:16.595Z,11.20
2019-05-12T18:32:45.307Z,11.20
2019-05-12T18:35:16.204Z,11.20
2019-05-12T18:37:47.303Z,11.20
2019-05-12T18:40:18.174Z,11.20
2019-05-12T18:42:49.297Z,11.20
2019-05-12T18:45:20.403Z,11.10
2019-05-12T18:47:53.698Z,11.10
2019-05-12T18:50:27.099Z,11.10
2019-05-12T18:52:56.557Z,11.10
2019-05-12T18:55:29.423Z,11.00
2019-05-12T18:58:31.162Z,11.00
2019-05-12T19:01:03.402Z,11.00
2019-05-12T19:03:47.163Z,10.90
2019-05-12T19:06:07.818Z,11.00
2019-05-12T19:08:38.838Z,11.00
2019-05-12T19:11:20.080Z,11.00
2019-05-12T19:13:51.383Z,11.10
2019-05-12T19:16:29.041Z,11.10
2019-05-12T19:19:00.617Z,11.10
2019-05-12T19:21:32.436Z,11.10
2019-05-12T19:24:03.672Z,11.00
2019-05-12T19:26:38.452Z,10.90
2019-05-12T19:29:08.298Z,10.80
2019-05-12T19:31:45.278Z,10.70
2019-05-12T19:34:22.525Z,10.80
2019-05-12T19:36:49.739Z,10.70
2019-05-12T19:39:25.096Z,10.80
2019-05-12T19:41:54.906Z,10.80
2019-05-12T19:44:30.706Z,10.80
2019-05-12T19:46:59.647Z,10.80
2019-05-12T19:49:46.219Z,10.80
2019-05-12T19:52:10.031Z,10.80
2019-05-12T19:54:41.293Z,10.80
2019-05-12T19:57:21.610Z,10.80
2019-05-12T19:59:50.717Z,10.80
2019-05-12T20:02:18.328Z,10.70
2019-05-12T20:04:51.876Z,10.70
2019-05-12T20:07:23.348Z,10.70
2019-05-12T20:10:00.100Z,10.70
2019-05-12T20:12:27.398Z,10.70
2019-05-12T20:14:59.234Z,10.60
2019-05-12T20:17:30.608Z,10.60
2019-05-12T20:20:01.481Z,10.60
2019-05-12T20:22:33.560Z,10.50
2019-05-12T20:25:04.656Z,10.50
2019-05-12T20:27:35.557Z,10.60
2019-05-12T20:30:18.768Z,10.60
2019-05-12T20:32:40.395Z,10.60
2019-05-12T20:35:11.488Z,10.60
2019-05-12T20:37:44.281Z,10.70
2019-05-12T20:40:15.737Z,10.60
2019-05-12T20:43:05.584Z,10.60
2019-05-12T20:45:22.557Z,10.50
2019-05-12T20:47:53.185Z,10.50
2019-05-12T20:50:32.301Z,10.50
2019-05-12T20:52:59.073Z,10.50
2019-05-12T20:55:29.989Z,10.50
2019-05-12T20:58:03.892Z,10.50
2019-05-12T21:00:38.995Z,10.50
2019-05-12T21:03:09.162Z,10.50
2019-05-12T21:05:39.955Z,10.50
2019-05-12T21:08:11.837Z,10.50
2019-05-12T21:10:44.111Z,10.50
2019-05-12T21:13:20.523Z,10.50
2019-05-12T21:15:49.337Z,10.40
2019-05-12T21:18:23.581Z,10.40
2019-05-12T21:20:54.973Z,10.40
2019-05-12T21:23:26.737Z,10.40
2019-05-12T21:25:58.515Z,10.40
2019-05-12T21:28:30.296Z,10.40
2019-05-12T21:31:03.680Z,10.40
2019-05-12T21:33:39.936Z,10.40
2019-05-12T21:36:08.456Z,10.30
2019-05-12T21:38:59.449Z,10.30
2019-05-12T21:41:30.175Z,10.30
2019-05-12T21:44:06.609Z,10.20
2019-05-12T21:46:38.273Z,10.20
2019-05-12T21:49:11.890Z,10.20
2019-05-12T21:51:44.650Z,10.20
2019-05-12T21:54:16.296Z,10.20
2019-05-12T21:56:49.477Z,10.20
2019-05-12T21:59:23.231Z,10.20
2019-05-12T22:01:54.457Z,10.10
2019-05-12T22:04:26.256Z,10.10
2019-05-12T22:06:58.933Z,10.10
2019-05-12T22:09:34.841Z,10.00
2019-05-12T22:12:03.768Z,10.00
2019-05-12T22:14:40.621Z,9.90
2019-05-12T22:17:08.977Z,9.90
2019-05-12T22:19:39.928Z,9.90
2019-05-12T22:22:10.883Z,9.80
2019-05-12T22:24:44.020Z,9.80
2019-05-12T22:27:21.800Z,9.80
2019-05-12T22:29:46.590Z,9.80
2019-05-12T22:32:19.122Z,9.80
2019-05-12T22:34:49.953Z,9.80
2019-05-12T22:37:20.926Z,9.80
2019-05-12T22:39:53.487Z,9.80
2019-05-12T22:42:24.493Z,9.80
2019-05-12T22:45:01.476Z,9.80
2019-05-12T22:47:27.823Z,9.80
2019-05-12T22:49:58.713Z,9.80
2019-05-12T22:52:29.630Z,9.80
2019-05-12T22:55:00.464Z,9.80
2019-05-12T22:57:38.251Z,9.80
2019-05-12T23:00:04.140Z,9.70
2019-05-12T23:02:36.591Z,9.70
2019-05-12T23:05:10.344Z,9.60
2019-05-12T23:07:40.007Z,9.50
2019-05-12T23:10:14.150Z,9.40
2019-05-12T23:12:44.681Z,9.40
2019-05-12T23:15:15.793Z,9.30
2019-05-12T23:17:49.320Z,9.20
2019-05-12T23:20:19.539Z,9.20
2019-05-12T23:22:50.487Z,9.20
2019-05-12T23:25:21.723Z,9.20
2019-05-12T23:27:54.239Z,9.10
2019-05-12T23:30:25.040Z,9.10
2019-05-12T23:32:55.873Z,9.10
2019-05-12T23:35:28.282Z,9.10
2019-05-12T23:37:59.000Z,9.00
2019-05-12T23:40:29.726Z,9.00
2019-05-12T23:43:00.580Z,9.00
2019-05-12T23:45:33.701Z,9.00
2019-05-12T23:48:04.135Z,8.90
2019-05-12T23:50:34.949Z,8.90
2019-05-12T23:53:05.729Z,8.80
2019-05-12T23:55:36.452Z,8.80
2019-05-12T23:58:07.309Z,8.80
